Terminal Aerodrome Forecast
Issued by NWS

Home | Current Version | Previous Version | Graphics & Text | Print | Product List | Glossary On
Versions: 1 2 3 4 5 6 7 8 9 10 11 12 13 14 15 16 17 18 19 20 21 22 23 24 25
000
FTUS43 KFGF 232108 AAH
TAFBJI
TAF AMD
KBJI 232108Z 2321/2418 16007KT P6SM SCT006
     FM240200 20009KT P6SM BKN200
     FM240600 23008KT P6SM SCT250
     FM241600 26019G28KT P6SM BKN035=

USA.gov is the U.S. government's official web portal to all federal, state and local government web resources and services.